Time;durP1;ratioP1;P1;durP2;ratioP2;P2;SDS_P1;SDS_P2;PMS_P1;PMS_P2;Temp;Humidity;BMP_temperature;BMP_pressure;BME280_temperature;BME280_humidity;BME280_pressure;Samples;Min_cycle;Max_cycle;Signal;HPM_P1;HPM_P2
2021/04/23 00:00:26;;;;;;;16.58;11.13;;;307.80;1920.00;;;;;;4862840;29;20026;-60
2021/04/23 00:02:53;;;;;;;15.93;10.80;;;307.90;1868.80;;;;;;4863162;29;20042;-60
2021/04/23 00:05:19;;;;;;;17.52;11.43;;;307.90;1843.20;;;;;;4863314;29;20044;-60
2021/04/23 00:07:45;;;;;;;17.75;11.48;;;307.80;1843.20;;;;;;4863266;29;20030;-60
2021/04/23 00:10:14;;;;;;;16.67;11.55;;;307.90;1843.20;;;;;;4863062;29;20035;-60
2021/04/23 00:12:41;;;;;;;17.63;11.55;;;307.90;1843.20;;;;;;4863178;29;20117;-60
2021/04/23 00:15:13;;;;;;;17.48;11.90;;;307.90;1868.80;;;;;;4862560;29;20046;-60
2021/04/23 00:17:39;;;;;;;17.05;11.23;;;307.90;1843.20;;;;;;4863047;29;20029;-60
2021/04/23 00:20:24;;;;;;;18.60;12.02;;;307.90;1843.20;;;;;;4862953;29;20029;-62
2021/04/23 00:22:50;;;;;;;18.42;11.32;;;307.90;1843.20;;;;;;4862879;29;20048;-60
2021/04/23 00:25:25;;;;;;;17.55;11.75;;;307.90;1843.20;;;;;;4862671;29;20424;-60
2021/04/23 00:27:51;;;;;;;;;;;307.90;1817.60;;;;;;4862966;29;20030;-60
2021/04/23 00:30:19;;;;;;;15.82;10.48;;;307.90;1792.00;;;;;;4862508;29;20291;-60
2021/04/23 00:32:52;;;;;;;15.18;10.35;;;307.90;1766.40;;;;;;4845592;29;20544;-60
2021/04/23 00:35:19;;;;;;;15.38;10.48;;;307.90;1740.80;;;;;;4862387;29;20511;-60
2021/04/23 00:37:48;;;;;;;14.23;9.73;;;307.90;1715.20;;;;;;4862519;29;20040;-59
2021/04/23 00:40:23;;;;;;;16.85;9.73;;;307.90;1689.60;;;;;;4862437;29;20034;-60
2021/04/23 00:42:49;;;;;;;;;;;307.80;1638.40;;;;;;4862805;29;20030;-60
2021/04/23 00:45:19;;;;;;;13.38;8.10;;;307.80;1612.80;;;;;;4862516;29;19908;-60
2021/04/23 00:47:47;;;;;;;13.30;8.60;;;307.90;1587.20;;;;;;4862567;29;20021;-60
2021/04/23 00:50:25;;;;;;;13.52;8.85;;;307.90;1587.20;;;;;;4862317;29;20033;-60
2021/04/23 00:52:51;;;;;;;12.98;8.60;;;307.90;1587.20;;;;;;4862374;29;20025;-60
2021/04/23 00:55:16;;;;;;;14.57;8.50;;;307.90;1536.00;;;;;;4862084;29;20241;-59
2021/04/23 00:57:42;;;;;;;13.70;7.90;;;307.80;1561.60;;;;;;4862107;29;20112;-60
2021/04/23 01:00:09;;;;;;;12.68;8.18;;;307.90;1536.00;;;;;;4861953;29;20038;-60
2021/04/23 01:02:34;;;;;;;13.98;7.50;;;307.90;1510.40;;;;;;4861911;29;20033;-60
2021/04/23 01:05:00;;;;;;;12.45;7.68;;;307.80;1484.80;;;;;;4862190;29;20460;-60
2021/04/23 01:07:26;;;;;;;12.05;7.63;;;307.80;1510.40;;;;;;4861995;29;20054;-60
2021/04/23 01:09:52;;;;;;;14.75;8.18;;;307.80;1510.40;;;;;;4861759;29;20037;-59
2021/04/23 01:12:17;;;;;;;14.55;9.05;;;307.90;1510.40;;;;;;4861769;29;20038;-60
2021/04/23 01:14:43;;;;;;;13.68;8.88;;;307.90;1536.00;;;;;;4862165;29;20110;-62
2021/04/23 01:17:09;;;;;;;14.85;8.90;;;308.00;1536.00;;;;;;4861726;29;20059;-59
2021/04/23 01:19:35;;;;;;;14.93;9.10;;;307.90;1561.60;;;;;;4844758;29;20078;-60
2021/04/23 01:22:01;;;;;;;17.30;9.23;;;307.90;1612.80;;;;;;4861628;29;20543;-61
2021/04/23 01:24:27;;;;;;;16.38;9.95;;;307.90;1638.40;;;;;;4844995;29;20037;-60
2021/04/23 01:26:54;;;;;;;16.50;9.75;;;307.90;1664.00;;;;;;4861724;29;20049;-60
2021/04/23 01:29:22;;;;;;;16.05;9.20;;;307.90;1638.40;;;;;;4845287;29;20041;-63
2021/04/23 01:31:54;;;;;;;16.65;10.35;;;307.90;1664.00;;;;;;4861652;29;20032;-60
2021/04/23 01:34:29;;;;;;;14.55;9.07;;;308.00;1638.40;;;;;;4861366;29;20110;-60
2021/04/23 01:36:56;;;;;;;15.30;9.65;;;308.00;1612.80;;;;;;4861791;29;20490;-60
2021/04/23 01:39:25;;;;;;;15.55;9.73;;;308.00;1638.40;;;;;;4861332;29;20518;-59
2021/04/23 01:41:53;;;;;;;16.70;9.57;;;308.00;1612.80;;;;;;4861360;29;20030;-60
2021/04/23 01:44:19;;;;;;;16.65;9.85;;;308.00;1612.80;;;;;;4861435;29;20033;-60
2021/04/23 01:46:46;;;;;;;16.13;9.80;;;308.00;1638.40;;;;;;4861431;29;20476;-60
2021/04/23 01:49:17;;;;;;;17.48;9.77;;;308.00;1612.80;;;;;;4861394;29;20078;-60
2021/04/23 01:51:50;;;;;;;16.52;9.82;;;308.00;1638.40;;;;;;4861348;29;20037;-60
2021/04/23 01:54:16;;;;;;;16.30;9.05;;;308.00;1638.40;;;;;;4861348;29;20499;-60
2021/04/23 01:56:43;;;;;;;15.25;8.93;;;308.00;1612.80;;;;;;4844781;29;20037;-60
2021/04/23 01:59:10;;;;;;;15.27;9.13;;;308.00;1612.80;;;;;;4861504;29;20034;-60
2021/04/23 02:01:36;;;;;;;17.85;9.82;;;307.90;1612.80;;;;;;4861250;29;20042;-60
2021/04/23 02:04:05;;;;;;;14.40;9.02;;;307.90;1587.20;;;;;;4861109;29;20045;-60
2021/04/23 02:06:31;;;;;;;14.75;9.38;;;307.80;1612.80;;;;;;4861022;29;20417;-60
2021/04/23 02:08:57;;;;;;;15.13;9.60;;;307.80;1612.80;;;;;;4861151;29;20061;-61
2021/04/23 02:11:23;;;;;;;15.10;9.15;;;307.80;1638.40;;;;;;4844615;29;20074;-60
2021/04/23 02:13:55;;;;;;;15.57;9.20;;;307.80;1612.80;;;;;;4861160;29;20034;-61
2021/04/23 02:16:21;;;;;;;16.50;9.50;;;307.70;1612.80;;;;;;4853928;29;20113;-61
2021/04/23 02:18:48;;;;;;;15.93;8.57;;;307.70;1612.80;;;;;;4842454;29;20068;-60
2021/04/23 02:21:14;;;;;;;16.02;8.45;;;307.70;1587.20;;;;;;4842852;29;20354;-60
2021/04/23 02:23:42;;;;;;;16.60;9.07;;;307.60;1587.20;;;;;;4845950;29;20561;-60
2021/04/23 02:26:08;;;;;;;15.13;8.63;;;307.60;1587.20;;;;;;4845742;29;20057;-61
2021/04/23 02:28:34;;;;;;;15.93;7.70;;;307.50;1561.60;;;;;;4854407;29;20065;-61
2021/04/23 02:31:12;;;;;;;12.93;7.97;;;307.50;1587.20;;;;;;4855732;29;20106;-65
2021/04/23 02:33:40;;;;;;;16.00;8.23;;;307.40;1561.60;;;;;;4852972;29;20054;-62
2021/04/23 02:36:07;;;;;;;15.07;7.78;;;307.40;1587.20;;;;;;4854133;29;20018;-63
2021/04/23 02:38:33;;;;;;;12.73;7.68;;;307.30;1587.20;;;;;;4854518;29;20054;-62
2021/04/23 02:41:00;;;;;;;13.65;8.00;;;307.20;1587.20;;;;;;4853099;29;20036;-62
2021/04/23 02:43:33;;;;;;;15.25;8.45;;;307.30;1587.20;;;;;;4854108;29;20112;-61
2021/04/23 02:46:00;;;;;;;17.13;8.73;;;307.30;1587.20;;;;;;4854816;29;20108;-61
2021/04/23 02:48:28;;;;;;;15.55;8.10;;;307.20;1587.20;;;;;;4853850;29;20396;-61
2021/04/23 02:50:58;;;;;;;14.98;7.72;;;307.20;1587.20;;;;;;4853217;29;20025;-61
2021/04/23 02:53:24;;;;;;;14.30;8.20;;;307.20;1587.20;;;;;;4855574;29;20029;-62
2021/04/23 02:55:50;;;;;;;14.10;7.75;;;307.20;1587.20;;;;;;4853309;29;20384;-61
2021/04/23 02:58:18;;;;;;;14.68;8.05;;;307.20;1587.20;;;;;;4854387;29;20058;-61
2021/04/23 03:00:48;;;;;;;14.18;8.27;;;307.20;1587.20;;;;;;4853366;29;20049;-61
2021/04/23 03:03:14;;;;;;;16.85;8.75;;;282.50;1561.60;;;;;;4852632;29;20400;-61
2021/04/23 03:05:42;;;;;;;19.30;8.82;;;282.40;1561.60;;;;;;4855414;29;20430;-68
2021/04/23 03:08:09;;;;;;;16.40;8.45;;;282.40;1561.60;;;;;;4853632;29;20029;-61
2021/04/23 03:10:40;;;;;;;14.68;8.20;;;282.30;1561.60;;;;;;4854323;29;20042;-62
2021/04/23 03:13:14;;;;;;;16.08;8.73;;;282.30;1561.60;;;;;;4853360;29;20086;-61
2021/04/23 03:15:40;;;;;;;16.75;8.32;;;282.20;1587.20;;;;;;4854973;29;20033;-61
2021/04/23 03:18:11;;;;;;;17.75;8.45;;;282.10;1587.20;;;;;;4853404;29;20033;-61
2021/04/23 03:20:37;;;;;;;15.15;7.75;;;282.10;1612.80;;;;;;4854224;29;20053;-63
2021/04/23 03:23:04;;;;;;;17.17;8.25;;;282.00;1612.80;;;;;;4852991;29;20096;-63
2021/04/23 03:25:33;;;;;;;16.08;9.25;;;282.00;1612.80;;;;;;4852951;29;20036;-60
2021/04/23 03:27:59;;;;;;;17.05;8.68;;;282.00;1612.80;;;;;;4854187;29;20034;-60
2021/04/23 03:30:30;;;;;;;18.25;8.82;;;281.90;1612.80;;;;;;4852826;29;20113;-61
2021/04/23 03:32:57;;;;;;;16.73;8.32;;;281.90;1638.40;;;;;;4846775;29;20054;-61
2021/04/23 03:35:24;;;;;;;14.65;7.93;;;282.10;1638.40;;;;;;4853541;29;20026;-61
2021/04/23 03:37:50;;;;;;;16.17;8.20;;;281.90;1612.80;;;;;;4853413;29;20034;-61
2021/04/23 03:40:20;;;;;;;15.68;7.47;;;281.90;1587.20;;;;;;4835490;29;20049;-60
2021/04/23 03:42:47;;;;;;;18.52;8.55;;;281.90;1587.20;;;;;;4853165;29;20041;-61
2021/04/23 03:45:15;;;;;;;19.00;8.15;;;281.90;1587.20;;;;;;4853513;29;20033;-62
2021/04/23 03:47:41;;;;;;;18.15;7.72;;;281.90;1612.80;;;;;;4853849;29;20548;-61
2021/04/23 03:50:11;;;;;;;14.93;7.50;;;281.90;1587.20;;;;;;4853020;29;20030;-62
2021/04/23 03:52:37;;;;;;;18.33;7.93;;;281.80;1536.00;;;;;;4851836;29;20477;-61
2021/04/23 03:55:06;;;;;;;18.63;7.97;;;281.80;1536.00;;;;;;4853314;29;20136;-65
2021/04/23 03:57:33;;;;;;;14.93;7.30;;;281.80;1561.60;;;;;;4853178;29;20053;-61
2021/04/23 03:59:59;;;;;;;14.23;7.07;;;281.70;1536.00;;;;;;4852560;29;20485;-61
2021/04/23 04:02:25;;;;;;;16.80;7.45;;;281.80;1510.40;;;;;;4853957;29;20098;-61
2021/04/23 04:04:51;;;;;;;18.88;8.32;;;281.80;1536.00;;;;;;4853716;29;20022;-61
2021/04/23 04:07:17;;;;;;;17.35;7.97;;;281.90;1536.00;;;;;;4852199;29;20161;-61
2021/04/23 04:09:42;;;;;;;13.48;7.75;;;281.90;1536.00;;;;;;4852755;29;20075;-61
2021/04/23 04:12:08;;;;;;;16.63;7.55;;;281.90;1510.40;;;;;;4853245;29;20037;-61
2021/04/23 04:14:34;;;;;;;16.60;7.90;;;281.90;1510.40;;;;;;4854230;29;20389;-62
2021/04/23 04:17:00;;;;;;;17.70;8.43;;;281.90;1510.40;;;;;;4852171;29;20022;-61
2021/04/23 04:19:25;;;;;;;21.13;9.13;;;281.90;1510.40;;;;;;4853270;29;20041;-61
2021/04/23 04:21:51;;;;;;;20.23;9.40;;;281.80;1484.80;;;;;;4858775;29;20029;-61
2021/04/23 04:24:17;;;;;;;19.48;9.55;;;281.70;1510.40;;;;;;4862533;29;20076;-60
2021/04/23 04:26:43;;;;;;;16.27;8.05;;;281.70;1510.40;;;;;;4845871;29;20044;-60
2021/04/23 04:29:09;;;;;;;16.85;8.38;;;281.70;1510.40;;;;;;4862584;29;20037;-60
2021/04/23 04:31:35;;;;;;;17.50;8.57;;;281.70;1510.40;;;;;;4862026;29;20037;-60
2021/04/23 04:34:00;;;;;;;14.25;7.30;;;281.60;1510.40;;;;;;4862403;29;20053;-60
2021/04/23 04:36:26;;;;;;;15.02;7.30;;;281.60;1510.40;;;;;;4862770;29;20433;-67
2021/04/23 04:38:52;;;;;;;33.50;12.60;;;281.60;1510.40;;;;;;4862356;29;20084;-60
2021/04/23 04:41:18;;;;;;;45.25;18.60;;;281.60;1510.40;;;;;;4862604;29;20037;-59
2021/04/23 04:43:44;;;;;;;29.60;12.30;;;281.60;1510.40;;;;;;4862374;29;20041;-59
2021/04/23 04:46:10;;;;;;;23.08;9.95;;;256.90;1510.40;;;;;;4860980;29;20057;-59
2021/04/23 04:48:36;;;;;;;18.80;8.80;;;281.60;1510.40;;;;;;4862173;29;20036;-66
2021/04/23 04:51:03;;;;;;;19.45;9.15;;;256.90;1510.40;;;;;;4853210;29;20040;-60
2021/04/23 04:53:31;;;;;;;19.10;8.32;;;281.60;1536.00;;;;;;4848675;29;20049;-60
2021/04/23 04:55:58;;;;;;;17.98;8.10;;;281.60;1536.00;;;;;;4843775;29;20034;-62
2021/04/23 04:58:27;;;;;;;15.13;7.63;;;281.70;1536.00;;;;;;4843771;29;20034;-63
2021/04/23 05:00:53;;;;;;;20.90;8.57;;;281.80;1510.40;;;;;;4861199;29;20048;-63
2021/04/23 05:03:19;;;;;;;19.45;8.63;;;281.80;1510.40;;;;;;4862108;29;20065;-63
2021/04/23 05:05:45;;;;;;;15.80;7.68;;;281.90;1510.40;;;;;;4861742;29;20029;-62
2021/04/23 05:08:11;;;;;;;16.90;8.00;;;281.90;1510.40;;;;;;4861931;29;20029;-64
2021/04/23 05:10:38;;;;;;;15.13;7.75;;;282.00;1536.00;;;;;;4845181;29;20040;-62
2021/04/23 05:13:04;;;;;;;13.98;7.22;;;282.00;1484.80;;;;;;4861721;29;20117;-63
2021/04/23 05:15:29;;;;;;;12.85;7.15;;;282.00;1510.40;;;;;;4861758;29;20121;-64
2021/04/23 05:17:55;;;;;;;12.57;7.25;;;281.90;1510.40;;;;;;4861719;29;20154;-63
2021/04/23 05:20:21;;;;;;;17.35;7.57;;;282.00;1510.40;;;;;;4858891;29;20033;-62
2021/04/23 05:22:47;;;;;;;14.75;7.18;;;282.00;1484.80;;;;;;4861622;29;20052;-62
2021/04/23 05:25:16;;;;;;;12.68;7.28;;;282.00;1459.20;;;;;;4861279;29;20065;-68
2021/04/23 05:27:42;;;;;;;16.50;7.72;;;282.00;1459.20;;;;;;4857471;29;20033;-62
2021/04/23 05:30:11;;;;;;;13.75;7.43;;;282.10;1484.80;;;;;;4859618;29;20082;-62
2021/04/23 05:32:39;;;;;;;15.73;6.70;;;282.10;1459.20;;;;;;4861397;29;20411;-63
2021/04/23 05:35:07;;;;;;;14.52;6.97;;;282.10;1459.20;;;;;;4861769;29;20108;-62
2021/04/23 05:37:33;;;;;;;12.80;6.55;;;282.20;1459.20;;;;;;4861584;29;20033;-63
2021/04/23 05:39:59;;;;;;;14.20;6.50;;;282.10;1433.60;;;;;;4844708;29;20121;-62
2021/04/23 05:42:25;;;;;;;14.93;6.68;;;282.30;1408.00;;;;;;4861101;29;20475;-63
2021/04/23 05:44:51;;;;;;;14.10;6.18;;;282.30;1408.00;;;;;;4861272;29;20037;-62
2021/04/23 05:47:16;;;;;;;12.50;5.82;;;282.40;1408.00;;;;;;4860557;29;20022;-64
2021/04/23 05:49:42;;;;;;;13.23;5.93;;;282.40;1408.00;;;;;;4853253;29;20029;-63
2021/04/23 05:52:08;;;;;;;13.02;6.35;;;282.50;1382.40;;;;;;4856981;29;20421;-63
2021/04/23 05:54:35;;;;;;;17.13;6.55;;;307.20;1408.00;;;;;;4859406;29;20420;-62
2021/04/23 05:57:03;;;;;;;15.82;5.95;;;307.20;1382.40;;;;;;4840549;29;20017;-63
2021/04/23 05:59:28;;;;;;;13.73;5.70;;;307.30;1356.80;;;;;;4860802;29;20057;-63
2021/04/23 06:01:54;;;;;;;14.73;6.20;;;307.40;1331.20;;;;;;4861252;29;20076;-67
2021/04/23 06:04:20;;;;;;;14.98;6.68;;;307.40;1331.20;;;;;;4860868;29;20045;-62
2021/04/23 06:06:46;;;;;;;14.75;6.78;;;307.50;1331.20;;;;;;4859784;29;20030;-63
2021/04/23 06:09:11;;;;;;;14.73;6.57;;;307.60;1305.60;;;;;;4861183;29;20034;-64
2021/04/23 06:11:39;;;;;;;12.57;5.43;;;307.60;1331.20;;;;;;4861019;29;20025;-68
2021/04/23 06:14:05;;;;;;;14.82;6.07;;;307.60;1305.60;;;;;;4844303;29;20089;-62
2021/04/23 06:16:31;;;;;;;11.85;6.05;;;307.60;1280.00;;;;;;4860509;29;20124;-62
2021/04/23 06:18:57;;;;;;;11.02;5.78;;;307.70;1305.60;;;;;;4860868;29;20036;-65
2021/04/23 06:21:24;;;;;;;14.90;6.90;;;307.80;1331.20;;;;;;4860987;29;20037;-63
2021/04/23 06:23:50;;;;;;;16.77;6.72;;;308.00;1305.60;;;;;;4859708;29;20067;-63
2021/04/23 06:26:17;;;;;;;14.95;6.22;;;332.80;1331.20;;;;;;4860662;29;20029;-63
2021/04/23 06:28:45;;;;;;;12.90;5.60;;;332.80;1305.60;;;;;;4860534;29;20033;-62
2021/04/23 06:31:12;;;;;;;10.57;5.07;;;332.80;1305.60;;;;;;4860515;29;20041;-63
2021/04/23 06:33:40;;;;;;;10.98;5.28;;;332.90;1254.40;;;;;;4860899;29;20071;-62
2021/04/23 06:36:07;;;;;;;11.02;5.20;;;332.90;1254.40;;;;;;4860952;29;20503;-63
2021/04/23 06:38:33;;;;;;;11.73;4.95;;;333.10;1280.00;;;;;;4859019;29;20035;-63
2021/04/23 06:41:00;;;;;;;12.70;4.43;;;333.10;1203.20;;;;;;4853982;29;20104;-61
2021/04/23 06:43:25;;;;;;;8.82;4.53;;;333.20;1152.00;;;;;;4852800;29;20046;-62
2021/04/23 06:45:52;;;;;;;8.73;4.13;;;333.30;1203.20;;;;;;4851412;29;20100;-63
2021/04/23 06:48:18;;;;;;;10.77;3.67;;;333.30;1152.00;;;;;;4851946;29;20046;-60
2021/04/23 06:50:45;;;;;;;13.50;4.75;;;333.30;1152.00;;;;;;4850351;29;20022;-64
2021/04/23 06:53:11;;;;;;;11.80;5.00;;;333.50;1152.00;;;;;;4851350;29;20037;-62
2021/04/23 06:55:37;;;;;;;12.95;4.20;;;333.50;1126.40;;;;;;4850627;29;20033;-62
2021/04/23 06:58:03;;;;;;;13.93;4.50;;;333.50;1126.40;;;;;;4825740;29;20037;-63
2021/04/23 07:00:32;;;;;;;12.98;4.50;;;333.60;1100.80;;;;;;4842800;29;20497;-62
2021/04/23 07:03:00;;;;;;;10.25;4.63;;;333.60;1126.40;;;;;;4860576;29;20042;-63
2021/04/23 07:05:28;;;;;;;9.05;4.47;;;333.70;1152.00;;;;;;4858034;29;20026;-65
2021/04/23 07:07:54;;;;;;;9.65;4.50;;;333.70;1152.00;;;;;;4853578;29;20048;-62
2021/04/23 07:10:23;;;;;;;11.90;5.07;;;358.40;1126.40;;;;;;4837081;29;20037;-62
2021/04/23 07:12:50;;;;;;;12.38;4.70;;;358.40;1126.40;;;;;;4853877;29;20383;-63
2021/04/23 07:15:19;;;;;;;8.65;4.25;;;358.50;1100.80;;;;;;4855516;29;20022;-63
2021/04/23 07:17:46;;;;;;;10.18;4.40;;;358.70;1126.40;;;;;;4853856;29;20034;-64
2021/04/23 07:20:13;;;;;;;11.90;5.22;;;358.70;1100.80;;;;;;4853410;29;20040;-62
2021/04/23 07:22:39;;;;;;;10.48;4.70;;;358.90;1100.80;;;;;;4847479;29;20132;-62
2021/04/23 07:25:06;;;;;;;13.68;6.22;;;358.90;1075.20;;;;;;4863932;29;20026;-63
2021/04/23 07:27:34;;;;;;;11.23;5.05;;;358.90;1075.20;;;;;;4863834;29;20037;-62
2021/04/23 07:30:06;;;;;;;11.75;4.72;;;359.10;1100.80;;;;;;4863652;29;20040;-65
2021/04/23 07:32:31;;;;;;;12.27;5.00;;;359.30;1075.20;;;;;;4846571;29;20041;-62
2021/04/23 07:34:57;;;;;;;13.18;5.40;;;384.10;1049.60;;;;;;4845331;29;20053;-63
2021/04/23 07:37:23;;;;;;;12.50;5.10;;;384.20;1049.60;;;;;;4845163;29;20385;-63
2021/04/23 07:39:49;;;;;;;11.05;4.70;;;384.30;1024.00;;;;;;4828396;29;20121;-63
2021/04/23 07:42:14;;;;;;;10.07;4.30;;;384.40;998.40;;;;;;4845209;29;20026;-64
2021/04/23 07:44:40;;;;;;;9.68;4.45;;;384.40;972.80;;;;;;4844950;29;20034;-63
2021/04/23 07:47:06;;;;;;;10.52;4.72;;;384.60;947.20;;;;;;4845244;29;20049;-62
2021/04/23 07:49:31;;;;;;;11.82;4.50;;;384.60;972.80;;;;;;4844883;29;20116;-64
2021/04/23 07:51:57;;;;;;;9.65;4.38;;;384.80;998.40;;;;;;4827839;29;20120;-62
2021/04/23 07:54:23;;;;;;;9.05;4.13;;;384.90;947.20;;;;;;4848508;29;20178;-61
2021/04/23 07:56:49;;;;;;;10.95;4.50;;;409.70;947.20;;;;;;4847312;29;20033;-62
2021/04/23 07:59:15;;;;;;;10.23;4.85;;;409.80;972.80;;;;;;4846417;29;20040;-62
2021/04/23 08:01:40;;;;;;;13.20;4.60;;;410.10;972.80;;;;;;4827940;29;20401;-61
2021/04/23 08:04:06;;;;;;;8.10;4.43;;;410.20;972.80;;;;;;4827574;29;20049;-62
2021/04/23 08:06:32;;;;;;;12.07;4.22;;;410.40;947.20;;;;;;4844280;29;20030;-62
2021/04/23 08:08:58;;;;;;;9.88;4.40;;;410.30;921.60;;;;;;4844272;29;20038;-62
2021/04/23 08:11:24;;;;;;;11.20;3.97;;;410.30;921.60;;;;;;4844366;29;20030;-62
2021/04/23 08:13:50;;;;;;;9.15;3.53;;;410.30;921.60;;;;;;4844217;29;20144;-62
2021/04/23 08:16:16;;;;;;;10.27;3.72;;;410.40;921.60;;;;;;4827609;29;20026;-62
2021/04/23 08:18:42;;;;;;;8.95;4.07;;;410.50;896.00;;;;;;4827450;29;20038;-61
2021/04/23 08:21:10;;;;;;;8.70;4.07;;;410.50;921.60;;;;;;4843960;29;20434;-62
2021/04/23 08:23:36;;;;;;;10.13;3.40;;;410.50;844.80;;;;;;4843918;29;20408;-62
2021/04/23 08:26:03;;;;;;;8.57;3.30;;;435.30;844.80;;;;;;4844327;29;20118;-62
2021/04/23 08:28:32;;;;;;;10.68;4.00;;;435.40;870.40;;;;;;4843908;29;20065;-62
2021/04/23 08:30:58;;;;;;;7.78;3.60;;;435.70;844.80;;;;;;4846216;29;20033;-61
2021/04/23 08:33:24;;;;;;;9.43;3.42;;;435.80;819.20;;;;;;4861022;29;20082;-62
2021/04/23 08:35:50;;;;;;;8.45;3.55;;;435.70;819.20;;;;;;4844263;29;20109;-62
2021/04/23 08:38:16;;;;;;;6.47;2.97;;;435.90;793.60;;;;;;4843660;29;20487;-64
2021/04/23 08:40:42;;;;;;;9.18;3.75;;;436.00;793.60;;;;;;4843717;29;20026;-62
2021/04/23 08:43:07;;;;;;;6.85;2.70;;;436.10;793.60;;;;;;4827380;29;20042;-62
2021/04/23 08:45:33;;;;;;;10.15;3.08;;;460.80;768.00;;;;;;4843543;29;20030;-62
2021/04/23 08:47:59;;;;;;;7.20;2.55;;;460.90;793.60;;;;;;4826795;29;20092;-62
2021/04/23 08:50:26;;;;;;;7.47;2.65;;;461.00;742.40;;;;;;4843633;29;20033;-62
2021/04/23 08:52:54;;;;;;;7.53;2.45;;;460.90;742.40;;;;;;4843420;29;20362;-63
2021/04/23 08:55:25;;;;;;;10.48;3.20;;;461.00;742.40;;;;;;4846664;29;20481;-62
2021/04/23 08:57:52;;;;;;;8.73;2.83;;;461.10;768.00;;;;;;4862155;29;20025;-62
2021/04/23 09:00:19;;;;;;;7.65;2.63;;;461.20;768.00;;;;;;4861919;29;20029;-62
2021/04/23 09:02:45;;;;;;;6.70;2.40;;;461.20;716.80;;;;;;4861588;29;20033;-63
2021/04/23 09:05:12;;;;;;;6.07;2.17;;;461.40;716.80;;;;;;4861920;29;20393;-62
2021/04/23 09:07:38;;;;;;;7.20;2.47;;;461.40;716.80;;;;;;4861658;29;20034;-62
2021/04/23 09:10:11;;;;;;;6.10;2.40;;;461.50;716.80;;;;;;4861347;29;20033;-62
2021/04/23 09:12:38;;;;;;;7.75;2.85;;;461.50;665.60;;;;;;4860255;29;20033;-62
2021/04/23 09:15:20;;;;;;;7.57;3.00;;;461.40;716.80;;;;;;4861586;29;20484;-62
2021/04/23 09:18:03;;;;;;;6.20;2.90;;;461.60;742.40;;;;;;4861813;29;20033;-63
2021/04/23 09:20:29;;;;;;;4.82;2.30;;;461.60;691.20;;;;;;4861605;29;20033;-64
2021/04/23 09:23:08;;;;;;;9.50;3.03;;;461.60;691.20;;;;;;4861736;29;20037;-61
2021/04/23 09:25:49;;;;;;;7.05;2.72;;;461.60;716.80;;;;;;4861315;29;20026;-62
2021/04/23 09:28:31;;;;;;;6.05;2.85;;;461.60;691.20;;;;;;4861722;29;20061;-62
2021/04/23 09:30:57;;;;;;;7.00;2.60;;;486.40;716.80;;;;;;4861231;29;20034;-64
2021/04/23 09:33:25;;;;;;;6.50;3.38;;;486.60;691.20;;;;;;4860788;29;20057;-62
2021/04/23 09:35:51;;;;;;;6.00;2.80;;;486.50;665.60;;;;;;4861285;29;20025;-62
2021/04/23 09:38:17;;;;;;;7.78;4.22;;;486.60;691.20;;;;;;4861431;29;20120;-63
2021/04/23 09:40:43;;;;;;;8.88;3.17;;;486.60;665.60;;;;;;4861291;29;20117;-62
2021/04/23 09:43:09;;;;;;;6.78;3.28;;;486.70;716.80;;;;;;4844505;29;20041;-64
2021/04/23 09:45:54;;;;;;;9.60;3.50;;;486.90;716.80;;;;;;4861291;29;20498;-61
2021/04/23 09:48:22;;;;;;;8.05;3.50;;;486.90;691.20;;;;;;4860856;29;20029;-63
2021/04/23 09:50:48;;;;;;;8.23;3.30;;;487.00;691.20;;;;;;4860864;29;20037;-63
2021/04/23 09:53:14;;;;;;;7.72;3.55;;;487.10;691.20;;;;;;4861033;29;20089;-62
2021/04/23 09:55:40;;;;;;;6.97;3.40;;;487.20;716.80;;;;;;4861190;29;20025;-62
2021/04/23 09:58:08;;;;;;;7.20;3.75;;;487.20;665.60;;;;;;4861196;29;20025;-63
2021/04/23 10:00:40;;;;;;;11.80;4.00;;;487.30;691.20;;;;;;4860929;29;20034;-63
2021/04/23 10:03:07;;;;;;;8.48;3.90;;;487.30;691.20;;;;;;4855262;29;20120;-62
2021/04/23 10:05:44;;;;;;;7.95;3.63;;;487.20;716.80;;;;;;4842571;29;20515;-62
2021/04/23 10:08:25;;;;;;;8.70;4.18;;;487.30;691.20;;;;;;4841948;29;20133;-62
2021/04/23 10:10:57;;;;;;;7.32;3.67;;;512.30;691.20;;;;;;4842628;29;20385;-62
2021/04/23 10:13:30;;;;;;;10.35;4.15;;;512.30;665.60;;;;;;4842654;29;20376;-62
2021/04/23 10:15:57;;;;;;;8.95;3.85;;;512.40;665.60;;;;;;4842529;29;20034;-65
2021/04/23 10:18:22;;;;;;;8.60;3.90;;;512.40;691.20;;;;;;4843487;29;20071;-65
2021/04/23 10:20:50;;;;;;;9.25;4.40;;;512.60;665.60;;;;;;4842130;29;20034;-64
2021/04/23 10:23:19;;;;;;;8.15;3.80;;;512.40;691.20;;;;;;4842599;29;20069;-65
2021/04/23 10:25:46;;;;;;;7.43;4.05;;;512.70;665.60;;;;;;4827832;29;20048;-63
2021/04/23 10:28:17;;;;;;;7.97;4.03;;;512.60;691.20;;;;;;4851054;29;20066;-63
2021/04/23 10:30:45;;;;;;;6.45;3.83;;;512.50;665.60;;;;;;4845774;29;20116;-63
2021/04/23 10:33:16;;;;;;;7.85;3.88;;;512.50;691.20;;;;;;4847590;29;20060;-63
2021/04/23 10:35:44;;;;;;;8.43;3.67;;;512.90;665.60;;;;;;4831377;29;20033;-62
2021/04/23 10:38:13;;;;;;;11.52;3.80;;;537.60;691.20;;;;;;4834541;29;20499;-64
2021/04/23 10:40:43;;;;;;;8.55;3.42;;;537.80;691.20;;;;;;4849795;29;20045;-62
2021/04/23 10:43:10;;;;;;;6.50;2.97;;;538.30;640.00;;;;;;4852129;29;20049;-68
2021/04/23 10:45:44;;;;;;;6.32;2.95;;;538.30;614.40;;;;;;4852436;29;20113;-62
2021/04/23 10:48:13;;;;;;;9.20;3.33;;;538.40;614.40;;;;;;4851921;29;20029;-63
2021/04/23 10:50:44;;;;;;;7.80;3.53;;;563.40;640.00;;;;;;4855146;29;20025;-64
2021/04/23 10:53:17;;;;;;;7.15;3.97;;;563.60;640.00;;;;;;4852957;29;20026;-62
2021/04/23 10:55:48;;;;;;;6.65;3.20;;;563.80;614.40;;;;;;4845103;29;20030;-63
2021/04/23 10:58:24;;;;;;;5.53;3.00;;;588.80;563.20;;;;;;4829694;29;20392;-62
2021/04/23 11:00:50;;;;;;;7.85;3.60;;;589.60;512.00;;;;;;4847818;29;20121;-61
2021/04/23 11:03:24;;;;;;;7.68;4.60;;;589.60;563.20;;;;;;4845259;29;20061;-62
2021/04/23 11:05:52;;;;;;;7.95;3.80;;;614.50;563.20;;;;;;4844943;29;20030;-65
2021/04/23 11:08:19;;;;;;;6.80;3.63;;;615.20;486.40;;;;;;4845276;29;20099;-62
2021/04/23 11:11:15;;;;;;;;;;;;;;;;;;;;;
2021/04/23 11:13:30;;;;;;;6.35;2.90;;;692.00;384.00;;;;;;4845599;29;20034;-63
2021/04/23 11:16:24;;;;;;;6.00;2.60;;;717.50;358.40;;;;;;4845272;29;20026;-63
2021/04/23 11:18:57;;;;;;;4.82;2.60;;;742.80;307.20;;;;;;4845334;29;20051;-62
2021/04/23 11:21:31;;;;;;;6.88;2.85;;;768.50;307.20;;;;;;4844973;29;20086;-67
2021/04/23 11:24:22;;;;;;;7.22;2.70;;;768.30;281.60;;;;;;4830978;29;20199;-62
2021/04/23 11:27:09;;;;;;;6.03;2.38;;;794.20;281.60;;;;;;4844729;29;20504;-63
2021/04/23 11:29:52;;;;;;;4.28;2.30;;;819.40;230.40;;;;;;4841365;29;20033;-63
2021/04/23 11:32:24;;;;;;;4.30;2.50;;;819.20;256.00;;;;;;4846314;29;20041;-62
2021/04/23 11:34:56;;;;;;;5.68;2.60;;;820.10;230.40;;;;;;4853738;29;20053;-61
2021/04/23 11:37:22;;;;;;;5.40;2.65;;;845.20;256.00;;;;;;4854420;29;20029;-62
2021/04/23 11:39:56;;;;;;;4.47;2.47;;;870.90;256.00;;;;;;4844170;29;20049;-63
2021/04/23 11:42:25;;;;;;;4.68;2.63;;;871.00;256.00;;;;;;4844560;29;20034;-62
2021/04/23 11:45:06;;;;;;;4.55;2.60;;;871.20;256.00;;;;;;4844850;29;20174;-61
2021/04/23 11:47:36;;;;;;;5.78;2.63;;;896.80;256.00;;;;;;4844774;29;20037;-62
2021/04/23 11:50:11;;;;;;;6.22;3.10;;;947.30;281.60;;;;;;4844287;29;20082;-62
2021/04/23 11:52:39;;;;;;;7.72;3.10;;;947.80;281.60;;;;;;4844047;29;20054;-62
2021/04/23 11:55:15;;;;;;;4.88;2.97;;;973.10;307.20;;;;;;4843066;29;20034;-67
2021/04/23 11:57:43;;;;;;;6.18;2.95;;;948.00;281.60;;;;;;4855144;29;20106;-67
2021/04/23 12:00:15;;;;;;;4.93;2.90;;;998.50;332.80;;;;;;4855303;29;20095;-63
2021/04/23 12:02:59;;;;;;;4.93;3.33;;;1024.00;332.80;;;;;;4844334;29;20034;-64
2021/04/23 12:05:36;;;;;;;6.00;3.50;;;1049.70;358.40;;;;;;4846030;29;20041;-63
2021/04/23 12:08:13;;;;;;;7.53;3.35;;;1049.80;358.40;;;;;;4862626;29;20026;-62
2021/04/23 12:10:41;;;;;;;7.72;3.10;;;1024.50;332.80;;;;;;4862954;29;20088;-61
2021/04/23 12:13:12;;;;;;;5.88;3.25;;;1050.30;358.40;;;;;;4849646;29;20026;-66
2021/04/23 12:15:40;;;;;;;7.07;3.10;;;1050.40;358.40;;;;;;4844298;29;20026;-64
2021/04/23 12:18:07;;;;;;;5.90;2.97;;;1024.50;332.80;;;;;;4844345;29;20121;-63
2021/04/23 12:20:45;;;;;;;5.47;3.30;;;1024.80;332.80;;;;;;4843861;29;20106;-63